Gaillard Crossroads, South Carolina
Current Conditions -  °F | °C
As of 11:58 PM on Wednesday 22 Oct 2014 (Local Time) from KSSC Reporting Station
Clear Clear  
Wind Chill: 52°   Ceiling: Unl
Heat Index: 52°   Visibility: 10mi
Dew Point: 44°   Wind: 6mph
Humidity: 73%   Direction: 330°NNW
Pressure: 30.08"   Gusts: NA
Location:  34.0134°N, 80.5102°W
Report Text: KSSC 230358Z AUTO 33005KT 10SM CLR 11/07 A3008 RMK AO2 SLP187 T01110065 $
Loading
Personal Weather Stations






























Interactive Weather Map
Tropical Storm Tracking
New forecast layout! Learn more

10-Day Weather Forecast

Advertisements
Track Severe Weather on mobile